CheckWX is a tool to help pilots better visualize weather data.  It is not intended as a substitute for an official pre-flight weather briefing.

19:34:32 UTC

KLXT METAR
Lee's Summit Municipal Airport
Lee's Summit, Missouri, USA
Current

19 mins ago

KLXT 191916Z AUTO 31012KT 10SM SCT022 BKN034 23/18 A2972 RMK AO2 T02330178
Observed
Jun-19 @ 19:16 UTC
Wind
  • 310° at 12 KTS
Visibility
10 SM
Flight Rules
VFR
Cloud Levels
  • Scattered at 2,200' AGL
  • Broken at 3,400' AGL
Temperature
23°C / 73°F
Dewpoint
18°C / 64°F
Humidity
74%
Altimeter
29.72" Hg
Pressure
1006.42 hPa
Previous

42 mins ago

KLXT 191853Z AUTO 30010G17KT 10SM FEW020 BKN025 BKN035 23/18 A2972 RMK AO2 SLP057 T02330178
Observed
Jun-19 @ 18:53 UTC
Wind
  • 300° at 10 KTS
  • Gusting to 17 KTS
Visibility
10 SM
Flight Rules
MVFR
Cloud Levels
  • Few at 2,000' AGL
  • Broken at 2,500' AGL
  • Broken at 3,500' AGL
Temperature
23°C / 73°F
Dewpoint
18°C / 64°F
Humidity
74%
Altimeter
29.72" Hg
Pressure
1006.42 hPa
Previous

1 hour ago

KLXT 191833Z AUTO 31010KT 10SM BKN022 BKN029 BKN048 22/18 A2973 RMK AO2 T02220178
Observed
Jun-19 @ 18:33 UTC
Wind
  • 310° at 10 KTS
Visibility
10 SM
Flight Rules
MVFR
Cloud Levels
  • Broken at 2,200' AGL
  • Broken at 2,900' AGL
  • Broken at 4,800' AGL
Temperature
22°C / 72°F
Dewpoint
18°C / 64°F
Humidity
78%
Altimeter
29.73" Hg
Pressure
1006.82 hPa